createdAt,value
2018-09-29T00:01:48.276Z,8.60
2018-09-29T00:03:50.512Z,7.50
2018-09-29T00:05:52.786Z,5.58
2018-09-29T00:07:55.056Z,6.40
2018-09-29T00:09:57.328Z,5.83
2018-09-29T00:11:59.565Z,6.12
2018-09-29T00:14:01.839Z,4.90
2018-09-29T00:16:04.088Z,7.15
2018-09-29T00:18:06.376Z,5.15
2018-09-29T00:20:08.604Z,4.87
2018-09-29T00:22:10.868Z,4.75
2018-09-29T00:24:13.098Z,5.87
2018-09-29T00:26:15.371Z,6.22
2018-09-29T00:28:17.599Z,5.95
2018-09-29T00:30:19.910Z,6.05
2018-09-29T00:32:22.126Z,5.15
2018-09-29T00:34:24.396Z,4.60
2018-09-29T00:36:26.631Z,7.28
2018-09-29T00:38:28.909Z,7.95
2018-09-29T00:40:31.141Z,8.15
2018-09-29T00:42:33.409Z,4.53
2018-09-29T00:44:35.643Z,4.12
2018-09-29T00:46:37.973Z,7.10
2018-09-29T00:48:40.185Z,5.03
2018-09-29T00:50:42.429Z,8.18
2018-09-29T00:52:44.656Z,7.00
2018-09-29T00:54:46.941Z,9.83
2018-09-29T00:56:49.177Z,5.28
2018-09-29T00:58:51.467Z,5.37
2018-09-29T01:00:53.725Z,5.70
2018-09-29T01:02:55.993Z,6.05
2018-09-29T01:04:58.250Z,4.95
2018-09-29T01:07:00.523Z,5.05
2018-09-29T01:09:02.801Z,5.80
2018-09-29T01:11:05.042Z,4.55
2018-09-29T01:13:07.281Z,5.90
2018-09-29T01:15:09.543Z,4.62
2018-09-29T01:17:11.831Z,5.58
2018-09-29T01:19:14.060Z,4.75
2018-09-29T01:21:16.327Z,6.53
2018-09-29T01:23:18.564Z,5.00
2018-09-29T01:25:20.823Z,8.65
2018-09-29T01:27:23.067Z,3.47
2018-09-29T01:29:25.299Z,3.95
2018-09-29T01:31:27.563Z,6.67
2018-09-29T01:33:29.912Z,5.92
2018-09-29T01:35:32.204Z,5.20
2018-09-29T01:37:34.498Z,9.70
2018-09-29T01:39:36.718Z,5.10
2018-09-29T01:41:39.143Z,5.10
2018-09-29T01:43:41.381Z,4.00
2018-09-29T01:45:43.607Z,7.97
2018-09-29T01:47:45.893Z,6.67
2018-09-29T01:49:48.166Z,5.35
2018-09-29T01:51:50.445Z,5.15
2018-09-29T01:53:52.681Z,4.85
2018-09-29T01:55:54.964Z,4.15
2018-09-29T01:57:57.233Z,4.95
2018-09-29T01:59:59.461Z,5.50
2018-09-29T02:02:01.723Z,3.98
2018-09-29T02:04:03.945Z,5.12
2018-09-29T02:06:06.213Z,4.72
2018-09-29T02:08:08.532Z,5.12
2018-09-29T02:10:10.747Z,3.40
2018-09-29T02:12:13.023Z,5.85
2018-09-29T02:14:15.284Z,5.95
2018-09-29T02:16:17.577Z,5.55
2018-09-29T02:18:19.841Z,6.55
2018-09-29T02:20:22.068Z,6.40
2018-09-29T02:22:24.362Z,5.25
2018-09-29T02:24:26.576Z,3.62
2018-09-29T02:26:28.808Z,6.45
2018-09-29T02:28:31.087Z,9.48
2018-09-29T02:30:33.329Z,6.87
2018-09-29T02:32:35.563Z,5.58
2018-09-29T02:34:37.862Z,7.42
2018-09-29T02:36:40.157Z,6.45
2018-09-29T02:38:42.413Z,6.37
2018-09-29T02:40:44.686Z,8.00
2018-09-29T02:42:46.949Z,5.85
2018-09-29T02:44:49.172Z,8.50
2018-09-29T02:46:51.406Z,9.33
2018-09-29T02:48:53.678Z,6.30
2018-09-29T02:50:55.908Z,6.05
2018-09-29T02:52:58.144Z,5.35
2018-09-29T02:55:00.430Z,5.35
2018-09-29T02:57:02.658Z,6.22
2018-09-29T02:59:04.886Z,4.87
2018-09-29T03:01:07.150Z,4.55
2018-09-29T03:03:09.394Z,5.85
2018-09-29T03:05:11.705Z,5.25
2018-09-29T03:07:13.979Z,4.20
2018-09-29T03:09:16.194Z,7.97
2018-09-29T03:11:18.440Z,5.35
2018-09-29T03:13:20.698Z,4.90
2018-09-29T03:15:22.971Z,3.77
2018-09-29T03:17:25.218Z,5.92
2018-09-29T03:19:27.467Z,5.55
2018-09-29T03:21:29.711Z,4.40
2018-09-29T03:23:31.962Z,4.75
2018-09-29T03:25:34.248Z,4.15
2018-09-29T03:27:36.482Z,5.33
2018-09-29T03:29:38.716Z,5.67
2018-09-29T03:31:41.051Z,4.47
2018-09-29T03:33:43.220Z,4.72
2018-09-29T03:35:45.482Z,4.55
2018-09-29T03:37:47.740Z,5.20
2018-09-29T03:39:49.982Z,3.70
2018-09-29T03:41:52.260Z,5.30
2018-09-29T03:43:54.532Z,7.22
2018-09-29T03:45:56.796Z,7.40
2018-09-29T03:47:59.028Z,5.97
2018-09-29T03:50:01.256Z,6.67
2018-09-29T03:52:03.523Z,3.72
2018-09-29T03:54:05.746Z,7.03
2018-09-29T03:56:07.980Z,4.53
2018-09-29T03:58:10.244Z,5.85
2018-09-29T04:00:12.476Z,4.22
2018-09-29T04:02:14.781Z,5.12
2018-09-29T04:04:17.048Z,3.10
2018-09-29T04:06:19.284Z,4.45
2018-09-29T04:08:21.526Z,7.47
2018-09-29T04:10:23.788Z,7.53
2018-09-29T04:12:26.054Z,3.83
2018-09-29T04:14:28.295Z,7.10
2018-09-29T04:16:30.516Z,2.92
2018-09-29T04:18:32.797Z,6.67
2018-09-29T04:20:35.019Z,3.75
2018-09-29T04:22:37.296Z,4.00
2018-09-29T04:24:39.569Z,3.35
2018-09-29T04:26:41.800Z,3.20
2018-09-29T04:28:44.059Z,3.75
2018-09-29T04:30:46.325Z,3.40
2018-09-29T04:32:48.555Z,5.53
2018-09-29T04:34:50.833Z,5.87
2018-09-29T04:36:53.077Z,3.70
2018-09-29T04:38:55.327Z,5.55
2018-09-29T04:40:57.601Z,4.17
2018-09-29T04:42:59.937Z,3.95
2018-09-29T04:45:02.119Z,3.10
2018-09-29T04:47:04.357Z,3.80
2018-09-29T04:49:06.690Z,2.95
2018-09-29T04:51:09.383Z,4.87
2018-09-29T04:53:11.639Z,6.80
2018-09-29T04:55:13.917Z,3.05
2018-09-29T04:57:16.155Z,2.33
2018-09-29T04:59:18.408Z,5.45
2018-09-29T05:01:20.672Z,4.20
2018-09-29T05:03:22.905Z,4.05
2018-09-29T05:05:25.199Z,5.58
2018-09-29T05:07:27.423Z,5.97
2018-09-29T05:09:29.702Z,3.45
2018-09-29T05:11:31.939Z,3.65
2018-09-29T05:13:34.166Z,4.00
2018-09-29T05:15:36.435Z,2.98
2018-09-29T05:17:38.667Z,3.27
2018-09-29T05:19:40.908Z,3.15
2018-09-29T05:21:43.175Z,5.00
2018-09-29T05:23:45.425Z,3.37
2018-09-29T05:25:47.693Z,3.17
2018-09-29T05:27:49.941Z,4.05
2018-09-29T05:29:52.163Z,3.05
2018-09-29T05:31:54.448Z,5.10
2018-09-29T05:33:56.680Z,3.55
2018-09-29T05:35:58.909Z,3.90
2018-09-29T05:38:01.177Z,3.22
2018-09-29T05:40:03.451Z,3.17
2018-09-29T05:42:05.746Z,2.98
2018-09-29T05:44:07.977Z,4.60
2018-09-29T05:46:10.232Z,3.17
2018-09-29T05:48:12.502Z,4.08
2018-09-29T05:50:15.005Z,4.50
2018-09-29T05:52:17.249Z,5.90
2018-09-29T05:54:19.523Z,3.20
2018-09-29T05:56:21.770Z,3.40
2018-09-29T05:58:24.005Z,3.80
2018-09-29T06:00:26.337Z,3.12
2018-09-29T06:02:28.532Z,3.87
2018-09-29T06:04:30.813Z,1.60
2018-09-29T06:06:33.047Z,3.27
2018-09-29T06:08:35.340Z,2.65
2018-09-29T06:10:37.577Z,3.10
2018-09-29T06:12:39.828Z,2.95
2018-09-29T06:14:42.105Z,2.02
2018-09-29T06:16:44.363Z,3.70
2018-09-29T06:18:46.578Z,2.70
2018-09-29T06:20:48.842Z,3.87
2018-09-29T06:22:51.115Z,3.80
2018-09-29T06:24:53.367Z,4.40
2018-09-29T06:26:55.639Z,5.10
2018-09-29T06:28:57.903Z,4.03
2018-09-29T06:31:00.148Z,2.58
2018-09-29T06:33:02.408Z,2.95
2018-09-29T06:35:04.658Z,3.30
2018-09-29T06:37:06.904Z,2.33
2018-09-29T06:39:09.186Z,2.20
2018-09-29T06:41:11.441Z,3.45
2018-09-29T06:43:13.668Z,2.62
2018-09-29T06:45:15.938Z,4.08
2018-09-29T06:47:18.169Z,2.70
2018-09-29T06:49:20.412Z,3.22
2018-09-29T06:51:22.683Z,3.22
2018-09-29T06:53:25.210Z,3.05
2018-09-29T06:55:27.447Z,2.95
2018-09-29T06:57:29.725Z,3.40
2018-09-29T06:59:31.971Z,1.70
2018-09-29T07:01:34.237Z,4.28
2018-09-29T07:03:36.483Z,5.30
2018-09-29T07:05:38.745Z,3.25
2018-09-29T07:07:40.978Z,4.72
2018-09-29T07:09:43.233Z,3.55
2018-09-29T07:11:45.509Z,3.90
2018-09-29T07:13:47.739Z,3.80
2018-09-29T07:15:50.037Z,2.98
2018-09-29T07:17:52.303Z,2.67
2018-09-29T07:19:54.546Z,2.62
2018-09-29T07:21:56.847Z,2.52
2018-09-29T07:23:59.599Z,3.12
2018-09-29T07:26:01.856Z,2.90
2018-09-29T07:28:04.113Z,3.27
2018-09-29T07:30:06.407Z,4.10
2018-09-29T07:32:08.645Z,3.05
2018-09-29T07:34:10.883Z,2.95
2018-09-29T07:36:13.129Z,3.58
2018-09-29T07:38:15.377Z,3.80
2018-09-29T07:40:17.635Z,2.00
2018-09-29T07:42:19.921Z,1.62
2018-09-29T07:44:22.528Z,2.62
2018-09-29T07:46:24.794Z,8.30
2018-09-29T07:48:27.061Z,4.55
2018-09-29T07:50:29.281Z,48.63
2018-09-29T07:52:31.567Z,74.25
2018-09-29T07:54:33.848Z,246.40
2018-09-29T07:56:36.105Z,204.00
2018-09-29T07:58:38.407Z,135.10
2018-09-29T08:00:40.660Z,116.53
2018-09-29T08:02:42.948Z,98.75
2018-09-29T08:04:45.222Z,105.58
2018-09-29T08:06:47.496Z,106.87
2018-09-29T08:08:49.752Z,173.82
2018-09-29T08:10:52.031Z,177.57
2018-09-29T08:12:54.267Z,169.28
2018-09-29T08:14:56.600Z,156.02
2018-09-29T08:16:59.003Z,160.72
2018-09-29T08:19:01.294Z,165.35
2018-09-29T08:21:03.600Z,186.10
2018-09-29T08:23:05.878Z,195.07
2018-09-29T08:25:08.144Z,186.73
2018-09-29T08:27:10.418Z,184.55
2018-09-29T08:29:12.673Z,174.97
2018-09-29T08:31:14.938Z,166.95
2018-09-29T08:33:17.216Z,183.75
2018-09-29T08:35:19.475Z,199.95
2018-09-29T08:37:21.762Z,239.72
2018-09-29T08:39:24.007Z,259.87
2018-09-29T08:41:26.302Z,271.75
2018-09-29T08:43:28.550Z,256.70
2018-09-29T08:45:30.830Z,208.65
2018-09-29T08:47:33.123Z,225.62
2018-09-29T08:49:35.366Z,227.60
2018-09-29T08:51:37.658Z,224.52
2018-09-29T08:53:39.987Z,165.95
2018-09-29T08:55:42.194Z,133.35
2018-09-29T08:57:44.426Z,183.25
2018-09-29T08:59:46.700Z,178.27
2018-09-29T09:01:48.949Z,168.95
2018-09-29T09:03:51.285Z,140.68
2018-09-29T09:05:53.498Z,125.40
2018-09-29T09:07:55.734Z,115.62
2018-09-29T09:09:58.015Z,139.62
2018-09-29T09:12:00.264Z,122.87
2018-09-29T09:14:02.500Z,115.85
2018-09-29T09:16:04.780Z,101.02
2018-09-29T09:18:07.071Z,117.57
2018-09-29T09:20:09.321Z,108.35
2018-09-29T09:22:11.608Z,82.80
2018-09-29T09:24:13.961Z,71.90
2018-09-29T09:26:16.120Z,69.32
2018-09-29T09:28:18.355Z,63.45
2018-09-29T09:30:20.672Z,60.70
2018-09-29T09:32:22.878Z,47.60
2018-09-29T09:34:25.144Z,45.33
2018-09-29T09:36:27.420Z,53.23
2018-09-29T09:38:29.655Z,63.20
2018-09-29T09:40:31.961Z,53.98
2018-09-29T09:42:34.199Z,48.28
2018-09-29T09:44:36.489Z,54.20
2018-09-29T09:46:38.753Z,42.90
2018-09-29T09:48:40.996Z,41.33
2018-09-29T09:50:43.441Z,38.25
2018-09-29T09:52:45.683Z,63.85
2018-09-29T09:54:47.941Z,57.08
2018-09-29T09:56:50.219Z,74.70
2018-09-29T09:58:52.511Z,27.13
2018-09-29T10:00:54.793Z,20.60
2018-09-29T10:02:57.100Z,11.08
2018-09-29T10:04:59.344Z,10.72
2018-09-29T10:07:01.581Z,14.25
2018-09-29T10:09:03.858Z,62.53
2018-09-29T10:11:06.100Z,174.15
2018-09-29T10:13:08.404Z,201.52
2018-09-29T10:15:10.699Z,84.97
2018-09-29T10:17:12.988Z,27.67
2018-09-29T10:19:15.289Z,500.25
2018-09-29T10:21:17.528Z,159.37
2018-09-29T10:23:19.836Z,62.03
2018-09-29T10:25:22.087Z,20.12
2018-09-29T10:27:24.371Z,9.15
2018-09-29T10:29:26.617Z,8.53
2018-09-29T10:31:28.856Z,8.60
2018-09-29T10:33:31.128Z,7.00
2018-09-29T10:35:33.385Z,4.75
2018-09-29T10:37:35.612Z,4.87
2018-09-29T10:39:37.914Z,10.20
2018-09-29T10:41:40.166Z,86.57
2018-09-29T10:43:42.402Z,318.57
2018-09-29T10:45:44.681Z,32.53
2018-09-29T10:47:46.984Z,10.53
2018-09-29T10:49:49.230Z,26.52
2018-09-29T10:51:51.467Z,68.40
2018-09-29T10:53:53.756Z,62.85
2018-09-29T10:55:56.049Z,29.55
2018-09-29T10:57:58.286Z,15.45
2018-09-29T11:00:00.563Z,11.12
2018-09-29T11:02:02.837Z,8.45
2018-09-29T11:04:05.065Z,5.47
2018-09-29T11:06:07.315Z,9.80
2018-09-29T11:08:09.612Z,9.60
2018-09-29T11:10:11.843Z,9.38
2018-09-29T11:12:14.126Z,6.50
2018-09-29T11:14:16.417Z,5.15
2018-09-29T11:16:18.647Z,11.65
2018-09-29T11:18:20.885Z,6.15
2018-09-29T11:20:23.145Z,3.70
2018-09-29T11:22:25.382Z,4.55
2018-09-29T11:24:27.629Z,12.50
2018-09-29T11:26:29.915Z,6.05
2018-09-29T11:28:32.555Z,10.32
2018-09-29T11:30:34.796Z,5.90
2018-09-29T11:32:37.487Z,4.97
2018-09-29T11:34:39.724Z,4.20
2018-09-29T11:36:42.010Z,5.42
2018-09-29T11:38:44.260Z,5.17
2018-09-29T11:40:46.539Z,6.60
2018-09-29T11:42:48.773Z,5.55
2018-09-29T11:44:51.056Z,3.83
2018-09-29T11:46:53.264Z,5.70
2018-09-29T11:48:56.552Z,4.33
2018-09-29T11:50:58.825Z,4.05
2018-09-29T11:53:01.072Z,2.37
2018-09-29T11:55:03.374Z,4.30
2018-09-29T11:57:05.598Z,3.17
2018-09-29T11:59:07.856Z,7.00
2018-09-29T12:01:10.172Z,4.70
2018-09-29T12:03:12.403Z,3.70
2018-09-29T12:05:14.670Z,4.87
2018-09-29T12:07:17.011Z,2.83
2018-09-29T12:09:19.379Z,5.35
2018-09-29T12:11:21.618Z,4.92
2018-09-29T12:13:23.880Z,5.50
2018-09-29T12:15:26.119Z,2.12
2018-09-29T12:17:28.358Z,2.77
2018-09-29T12:19:30.656Z,2.58
2018-09-29T12:21:32.888Z,3.75
2018-09-29T12:23:35.160Z,2.77
2018-09-29T12:25:37.433Z,4.22
2018-09-29T12:27:39.684Z,7.08
2018-09-29T12:29:41.967Z,4.40
2018-09-29T12:31:44.184Z,2.55
2018-09-29T12:33:46.468Z,3.27
2018-09-29T12:35:48.715Z,7.72
2018-09-29T12:37:51.038Z,2.92
2018-09-29T12:39:53.763Z,5.53
2018-09-29T12:41:55.995Z,6.53
2018-09-29T12:43:58.225Z,4.58
2018-09-29T12:46:00.501Z,2.42
2018-09-29T12:48:02.769Z,3.80
2018-09-29T12:50:05.057Z,4.70
2018-09-29T12:52:07.298Z,2.58
2018-09-29T12:54:09.521Z,4.00
2018-09-29T12:56:11.776Z,10.18
2018-09-29T12:58:14.051Z,8.65
2018-09-29T13:00:16.297Z,8.88
2018-09-29T13:02:18.527Z,9.08
2018-09-29T13:04:20.797Z,15.18
2018-09-29T13:06:23.051Z,11.80
2018-09-29T13:08:25.285Z,6.45
2018-09-29T13:10:27.568Z,8.93
2018-09-29T13:12:29.761Z,5.78
2018-09-29T13:14:31.997Z,4.80
2018-09-29T13:16:34.269Z,4.40
2018-09-29T13:18:36.501Z,5.08
2018-09-29T13:20:38.759Z,9.60
2018-09-29T13:22:41.043Z,5.33
2018-09-29T13:24:43.295Z,4.20
2018-09-29T13:26:45.576Z,2.25
2018-09-29T13:28:47.849Z,4.12
2018-09-29T13:30:50.088Z,5.45
2018-09-29T13:32:52.343Z,3.45
2018-09-29T13:34:54.639Z,6.95
2018-09-29T13:36:56.944Z,4.37
2018-09-29T13:38:59.307Z,26.60
2018-09-29T13:41:01.556Z,13.58
2018-09-29T13:43:03.811Z,6.78
2018-09-29T13:45:06.094Z,11.22
2018-09-29T13:47:08.350Z,10.28
2018-09-29T13:49:10.602Z,43.58
2018-09-29T13:51:12.909Z,14.55
2018-09-29T13:53:15.206Z,13.58
2018-09-29T13:55:17.457Z,16.75
2018-09-29T13:57:19.700Z,5.65
2018-09-29T13:59:21.998Z,6.95
2018-09-29T14:01:24.233Z,12.43
2018-09-29T14:03:26.459Z,5.87
2018-09-29T14:05:28.739Z,4.55
2018-09-29T14:07:31.015Z,2.08
2018-09-29T14:09:33.257Z,1.95
2018-09-29T14:11:35.528Z,3.60
2018-09-29T14:13:37.779Z,6.03
2018-09-29T14:15:40.035Z,3.70
2018-09-29T14:17:42.299Z,4.12
2018-09-29T14:19:44.554Z,2.92
2018-09-29T14:21:46.777Z,2.33
2018-09-29T14:23:49.036Z,4.87
2018-09-29T14:25:51.339Z,32.55
2018-09-29T14:27:53.584Z,11.85
2018-09-29T14:29:55.859Z,10.28
2018-09-29T14:31:58.116Z,13.00
2018-09-29T14:34:00.399Z,5.12
2018-09-29T14:36:02.690Z,3.67
2018-09-29T14:38:04.953Z,2.77
2018-09-29T14:40:07.239Z,5.20
2018-09-29T14:42:09.475Z,5.70
2018-09-29T14:44:11.709Z,3.27
2018-09-29T14:46:14.003Z,3.35
2018-09-29T14:48:16.240Z,3.20
2018-09-29T14:50:18.557Z,3.52
2018-09-29T14:52:20.867Z,2.37
2018-09-29T14:54:23.045Z,7.22
2018-09-29T14:56:25.323Z,115.62
2018-09-29T14:58:27.580Z,69.77
2018-09-29T15:00:29.841Z,39.92
2018-09-29T15:02:32.124Z,10.98
2018-09-29T15:04:34.371Z,27.40
2018-09-29T15:06:36.620Z,29.12
2018-09-29T15:08:38.915Z,26.97
2018-09-29T15:10:41.175Z,29.15
2018-09-29T15:12:43.455Z,30.20
2018-09-29T15:14:45.731Z,20.50
2018-09-29T15:16:48.022Z,21.12
2018-09-29T15:18:50.282Z,19.87
2018-09-29T15:20:52.575Z,18.45
2018-09-29T15:22:54.812Z,16.30
2018-09-29T15:24:57.059Z,19.60
2018-09-29T15:26:59.342Z,18.27
2018-09-29T15:29:01.618Z,15.93
2018-09-29T15:31:03.930Z,15.25
2018-09-29T15:33:06.245Z,13.62
2018-09-29T15:35:08.484Z,15.72
2018-09-29T15:37:10.831Z,14.25
2018-09-29T15:39:13.041Z,169.93
2018-09-29T15:41:15.326Z,199.47
2018-09-29T15:43:17.594Z,83.30
2018-09-29T15:45:19.821Z,44.13
2018-09-29T15:47:22.097Z,30.97
2018-09-29T15:49:24.338Z,9.43
2018-09-29T15:51:26.575Z,8.28
2018-09-29T15:53:28.853Z,299.65
2018-09-29T15:55:31.144Z,232.52
2018-09-29T15:57:33.384Z,58.20
2018-09-29T15:59:35.639Z,17.70
2018-09-29T16:01:37.878Z,8.05
2018-09-29T16:03:40.140Z,11.63
2018-09-29T16:05:42.414Z,6.12
2018-09-29T16:07:44.649Z,5.00
2018-09-29T16:09:47.010Z,4.83
2018-09-29T16:11:49.245Z,5.42
2018-09-29T16:13:51.531Z,5.70
2018-09-29T16:15:53.832Z,2.87
2018-09-29T16:17:56.094Z,6.75
2018-09-29T16:19:58.340Z,3.00
2018-09-29T16:22:00.602Z,2.40
2018-09-29T16:24:02.835Z,5.70
2018-09-29T16:26:05.111Z,3.47
2018-09-29T16:28:07.381Z,2.67
2018-09-29T16:30:09.626Z,4.17
2018-09-29T16:32:11.898Z,100.90
2018-09-29T16:34:14.158Z,64.32
2018-09-29T16:36:16.429Z,107.47
2018-09-29T16:38:18.699Z,267.02
2018-09-29T16:40:20.994Z,158.50
2018-09-29T16:42:23.243Z,207.95
2018-09-29T16:44:25.508Z,272.73
2018-09-29T16:46:27.808Z,265.23
2018-09-29T16:48:30.084Z,225.87
2018-09-29T16:50:32.334Z,232.00
2018-09-29T16:52:34.606Z,240.77
2018-09-29T16:54:36.904Z,279.25
2018-09-29T16:56:39.160Z,330.05
2018-09-29T16:58:41.418Z,335.23
2018-09-29T17:00:43.847Z,377.43
2018-09-29T17:02:46.091Z,368.02
2018-09-29T17:04:48.921Z,374.02
2018-09-29T17:06:51.580Z,357.67
2018-09-29T17:08:53.847Z,352.85
2018-09-29T17:10:56.131Z,351.55
2018-09-29T17:12:58.386Z,387.72
2018-09-29T17:15:00.631Z,234.57
2018-09-29T17:17:02.923Z,267.02
2018-09-29T17:19:05.234Z,307.25
2018-09-29T17:21:07.501Z,335.20
2018-09-29T17:23:09.783Z,329.90
2018-09-29T17:25:12.092Z,321.75
2018-09-29T17:27:14.377Z,310.32
2018-09-29T17:29:16.625Z,297.40
2018-09-29T17:31:18.915Z,555.30
2018-09-29T17:33:21.166Z,401.18
2018-09-29T17:35:23.523Z,376.80
2018-09-29T17:37:25.810Z,401.07
2018-09-29T17:39:28.084Z,433.15
2018-09-29T17:41:30.385Z,443.65
2018-09-29T17:43:32.660Z,463.33
2018-09-29T17:45:34.997Z,451.48
2018-09-29T17:47:37.209Z,466.02
2018-09-29T17:49:39.450Z,578.20
2018-09-29T17:51:41.728Z,475.30
2018-09-29T17:53:44.012Z,478.98
2018-09-29T17:55:46.309Z,519.23
2018-09-29T17:57:48.574Z,527.23
2018-09-29T17:59:50.880Z,533.45
2018-09-29T18:01:53.121Z,521.58
2018-09-29T18:03:55.408Z,517.65
2018-09-29T18:05:57.691Z,502.55
2018-09-29T18:07:59.942Z,504.68
2018-09-29T18:10:02.239Z,499.05
2018-09-29T18:12:04.478Z,506.63
2018-09-29T18:14:06.757Z,503.48
2018-09-29T18:16:09.029Z,503.20
2018-09-29T18:18:11.291Z,504.68
2018-09-29T18:20:13.609Z,506.32
2018-09-29T18:22:15.902Z,489.17
2018-09-29T18:24:18.175Z,492.77
2018-09-29T18:26:20.469Z,482.58
2018-09-29T18:28:22.771Z,482.35
2018-09-29T18:30:25.087Z,466.25
2018-09-29T18:32:27.333Z,451.65
2018-09-29T18:34:29.591Z,454.55
2018-09-29T18:36:31.896Z,436.80
2018-09-29T18:38:34.161Z,419.45
2018-09-29T18:40:36.413Z,418.07
2018-09-29T18:42:38.719Z,416.32
2018-09-29T18:44:41.012Z,397.00
2018-09-29T18:46:43.276Z,386.80
2018-09-29T18:48:45.591Z,388.48
2018-09-29T18:50:47.752Z,393.75
2018-09-29T18:52:50.061Z,382.50
2018-09-29T18:54:52.310Z,381.32
2018-09-29T18:56:54.593Z,377.52
2018-09-29T18:58:56.857Z,375.13
2018-09-29T19:00:59.091Z,401.35
2018-09-29T19:03:01.388Z,392.62
2018-09-29T19:05:03.685Z,393.93
2018-09-29T19:07:05.929Z,405.05
2018-09-29T19:09:08.168Z,393.30
2018-09-29T19:11:10.481Z,443.90
2018-09-29T19:13:12.759Z,417.35
2018-09-29T19:15:15.032Z,420.77
2018-09-29T19:17:17.281Z,431.45
2018-09-29T19:19:19.572Z,430.87
2018-09-29T19:21:21.875Z,492.05
2018-09-29T19:23:24.172Z,452.93
2018-09-29T19:25:26.470Z,463.37
2018-09-29T19:27:28.794Z,474.88
2018-09-29T19:29:31.130Z,483.48
2018-09-29T19:31:33.376Z,475.25
2018-09-29T19:33:35.664Z,472.45
2018-09-29T19:35:37.928Z,473.23
2018-09-29T19:37:40.228Z,462.77
2018-09-29T19:39:42.532Z,577.78
2018-09-29T19:41:45.158Z,118.57
2018-09-29T19:43:47.465Z,60.75
2018-09-29T19:45:49.857Z,189.20
2018-09-29T19:47:52.017Z,142.85
2018-09-29T19:49:54.245Z,217.90
2018-09-29T19:51:56.552Z,222.95
2018-09-29T19:53:58.772Z,227.45
2018-09-29T19:56:01.039Z,230.18
2018-09-29T19:58:03.321Z,223.90
2018-09-29T20:00:05.569Z,209.18
2018-09-29T20:02:07.873Z,163.15
2018-09-29T20:04:10.123Z,195.40
2018-09-29T20:06:12.424Z,218.45
2018-09-29T20:08:14.731Z,1999.90
2018-09-29T20:10:17.038Z,1909.03
2018-09-29T20:12:19.258Z,1434.93
2018-09-29T20:14:21.585Z,408.00
2018-09-29T20:16:23.858Z,425.27
2018-09-29T20:18:26.172Z,433.15
2018-09-29T20:20:28.470Z,422.85
2018-09-29T20:22:30.753Z,410.70
2018-09-29T20:24:33.006Z,400.22
2018-09-29T20:26:35.299Z,393.27
2018-09-29T20:28:37.537Z,394.30
2018-09-29T20:30:39.886Z,385.02
2018-09-29T20:32:42.386Z,382.00
2018-09-29T20:34:44.637Z,366.93
2018-09-29T20:36:46.943Z,345.70
2018-09-29T20:38:49.201Z,425.45
2018-09-29T20:40:51.443Z,471.83
2018-09-29T20:42:53.745Z,520.65
2018-09-29T20:44:56.030Z,526.70
2018-09-29T20:46:58.291Z,509.05
2018-09-29T20:49:00.565Z,674.05
2018-09-29T20:51:02.828Z,578.38
2018-09-29T20:53:05.122Z,603.10
2018-09-29T20:55:07.381Z,627.73
2018-09-29T20:57:09.638Z,652.78
2018-09-29T20:59:11.915Z,629.70
2018-09-29T21:01:14.181Z,634.87
2018-09-29T21:03:16.476Z,606.95
2018-09-29T21:05:18.749Z,605.05
2018-09-29T21:07:20.997Z,586.17
2018-09-29T21:09:23.292Z,575.48
2018-09-29T21:11:25.560Z,568.90
2018-09-29T21:13:27.947Z,588.63
2018-09-29T21:15:30.095Z,560.37
2018-09-29T21:17:32.378Z,565.23
2018-09-29T21:19:34.636Z,555.20
2018-09-29T21:21:36.936Z,562.48
2018-09-29T21:23:39.259Z,555.63
2018-09-29T21:25:41.508Z,623.52
2018-09-29T21:27:43.764Z,647.42
2018-09-29T21:29:46.041Z,646.27
2018-09-29T21:31:48.328Z,648.55
2018-09-29T21:33:50.586Z,665.85
2018-09-29T21:35:52.870Z,664.63
2018-09-29T21:37:55.174Z,653.02
2018-09-29T21:39:57.420Z,647.40
2018-09-29T21:42:00.394Z,624.62
2018-09-29T21:44:02.790Z,650.80
2018-09-29T21:46:05.057Z,629.40
2018-09-29T21:48:07.307Z,647.52
2018-09-29T21:50:09.638Z,648.13
2018-09-29T21:52:11.935Z,678.80
2018-09-29T21:54:14.186Z,699.62
2018-09-29T21:56:16.460Z,719.97
2018-09-29T21:58:18.757Z,735.75
2018-09-29T22:00:21.058Z,711.67
2018-09-29T22:02:23.309Z,698.55
2018-09-29T22:04:25.634Z,699.23
2018-09-29T22:06:27.917Z,687.88
2018-09-29T22:08:30.208Z,693.80
2018-09-29T22:10:32.488Z,675.65
2018-09-29T22:12:34.799Z,662.58
2018-09-29T22:14:37.116Z,683.62
2018-09-29T22:16:39.423Z,677.15
2018-09-29T22:18:41.692Z,723.42
2018-09-29T22:20:43.932Z,739.90
2018-09-29T22:22:46.242Z,728.65
2018-09-29T22:24:48.485Z,719.73
2018-09-29T22:26:50.793Z,714.85
2018-09-29T22:28:53.068Z,710.23
2018-09-29T22:30:55.356Z,706.55
2018-09-29T22:32:57.595Z,734.37
2018-09-29T22:34:59.876Z,752.02
2018-09-29T22:37:02.135Z,731.83
2018-09-29T22:39:04.378Z,763.08
2018-09-29T22:41:06.661Z,770.67
2018-09-29T22:43:08.916Z,759.87
2018-09-29T22:45:12.038Z,755.67
2018-09-29T22:47:14.300Z,794.02
2018-09-29T22:49:16.586Z,799.30
2018-09-29T22:51:18.828Z,816.30
2018-09-29T22:53:21.108Z,843.05
2018-09-29T22:55:23.399Z,858.13
2018-09-29T22:57:25.677Z,853.75
2018-09-29T22:59:27.894Z,836.88
2018-09-29T23:01:30.196Z,838.48
2018-09-29T23:03:32.443Z,859.67
2018-09-29T23:05:34.749Z,883.25
2018-09-29T23:07:36.982Z,896.50
2018-09-29T23:09:39.261Z,895.40
2018-09-29T23:11:41.769Z,902.13
2018-09-29T23:13:44.054Z,909.77
2018-09-29T23:15:46.328Z,909.02
2018-09-29T23:17:48.629Z,889.40
2018-09-29T23:19:50.923Z,898.85
2018-09-29T23:21:53.193Z,896.65
2018-09-29T23:23:55.467Z,916.98
2018-09-29T23:25:57.799Z,929.25
2018-09-29T23:28:00.112Z,947.65
2018-09-29T23:30:02.385Z,994.37
2018-09-29T23:32:04.663Z,1008.22
2018-09-29T23:34:06.906Z,993.07
2018-09-29T23:36:09.200Z,997.10
2018-09-29T23:38:11.460Z,995.57
2018-09-29T23:40:13.709Z,987.70
2018-09-29T23:42:15.988Z,990.92
2018-09-29T23:44:18.245Z,1035.30
2018-09-29T23:46:20.549Z,1070.15
2018-09-29T23:48:22.843Z,1054.55
2018-09-29T23:50:25.101Z,1028.95
2018-09-29T23:52:27.335Z,1029.70
2018-09-29T23:54:29.708Z,1021.63
2018-09-29T23:56:31.927Z,1050.13
2018-09-29T23:58:34.215Z,1030.25
